Terminal Aerodrome Forecast
Issued by NWS

Home | Current Version | Previous Version | Text Only | Print | Product List | Glossary On
Versions: 1 2 3 4 5 6 7 8 9 10 11 12 13 14 15 16 17 18 19 20
000
FTPA31 PHFO 031700
TAFMKK
TAF
PHMK 031726Z 0318/0418 04012G20KT P6SM FEW025 BKN050
     FM032000 04015G25KT P6SM SCT050
     FM040500 04012G18KT P6SM SCT050
     FM040800 05006KT P6SM FEW030 BKN050=

USA.gov is the U.S. government's official web portal to all federal, state and local government web resources and services.